Little Chute, Wisconsin
Current Conditions -  °F | °C
As of 6:45 PM on Wednesday 22 Oct 2014 (Local Time) from KATW Reporting Station
Scattered Clouds Scattered Clouds  
Wind Chill: 43°   Ceiling: Unl
Heat Index: 46°   Visibility: 10mi
Dew Point: 37°   Wind: 7mph
Humidity: 71%   Direction: 120°ESE
Pressure: 30.25"   Gusts: NA
Location:  44.28°N, 88.32°W
Report Text: KATW 222345Z 12006KT 10SM SCT120 08/03 A3025
Loading
Personal Weather Stations






























Interactive Weather Map
Tropical Storm Tracking
New forecast layout! Learn more

10-Day Weather Forecast

Advertisements
Track Severe Weather on mobile